Time;durP1;ratioP1;P1;durP2;ratioP2;P2;SDS_P1;SDS_P2;PMS_P1;PMS_P2;Temp;Humidity;BMP_temperature;BMP_pressure;BME280_temperature;BME280_humidity;BME280_pressure;Samples;Min_cycle;Max_cycle;Signal;HPM_P1;HPM_P2
2023/05/03 00:02:12;;;;;;;2.83;1.40;;;;;;;;;;6182913;23;20033;-76
2023/05/03 00:04:39;;;;;;;2.40;1.30;;;;;;;;;;6183017;23;20084;-76
2023/05/03 00:07:04;;;;;;;4.20;1.40;;;;;;;;;;6181341;23;20527;-76
2023/05/03 00:09:32;;;;;;;4.30;1.50;;;;;;;;;;6184148;23;20029;-76
2023/05/03 00:11:59;;;;;;;3.40;1.60;;;;;;;;;;6184894;23;20012;-77
2023/05/03 00:14:24;;;;;;;4.38;1.70;;;;;;;;;;6183128;23;20009;-76
2023/05/03 00:16:50;;;;;;;2.80;1.50;;;;;;;;;;6185468;23;20059;-76
2023/05/03 00:19:16;;;;;;;3.85;1.63;;;;;;;;;;6185542;23;20447;-76
2023/05/03 00:21:41;;;;;;;3.72;1.70;;;;;;;;;;6185532;23;20064;-77
2023/05/03 00:24:07;;;;;;;4.20;1.70;;;;;;;;;;6185216;23;20024;-76
2023/05/03 00:26:32;;;;;;;3.20;1.50;;;;;;;;;;6185144;23;20072;-77
2023/05/03 00:28:57;;;;;;;2.80;1.60;;;;;;;;;;6185923;23;20005;-76
2023/05/03 00:31:23;;;;;;;3.58;1.70;;;;;;;;;;6183781;23;20032;-77
2023/05/03 00:33:48;;;;;;;3.90;1.85;;;;;;;;;;6186018;23;20024;-76
2023/05/03 00:36:14;;;;;;;3.03;1.58;;;;;;;;;;6184086;23;20001;-76
2023/05/03 00:38:40;;;;;;;3.83;1.38;;;;;;;;;;6185513;23;20001;-76
2023/05/03 00:41:07;;;;;;;2.47;1.42;;;;;;;;;;6185896;23;20008;-76
2023/05/03 00:43:34;;;;;;;3.95;1.70;;;;;;;;;;6186268;23;20012;-77
2023/05/03 00:46:00;;;;;;;2.50;1.50;;;;;;;;;;6186306;23;20446;-76
2023/05/03 00:48:26;;;;;;;4.63;1.83;;;;;;;;;;6183809;23;20035;-75
2023/05/03 00:50:53;;;;;;;2.22;1.52;;;;;;;;;;6185459;23;20004;-74
2023/05/03 00:53:20;;;;;;;2.97;1.65;;;;;;;;;;6184507;23;20418;-74
2023/05/03 00:55:45;;;;;;;4.20;1.60;;;;;;;;;;6182975;23;20036;-74
2023/05/03 00:58:11;;;;;;;3.95;1.73;;;;;;;;;;6182822;23;20004;-74
2023/05/03 01:00:36;;;;;;;4.88;1.80;;;;;;;;;;6183909;23;20005;-74
2023/05/03 01:03:01;;;;;;;2.80;1.73;;;;;;;;;;6186052;23;20419;-74
2023/05/03 01:05:34;;;;;;;4.40;1.80;;;;;;;;;;6185137;23;20313;-74
2023/05/03 01:08:14;;;;;;;3.00;1.77;;;;;;;;;;6185322;23;20005;-76
2023/05/03 01:10:54;;;;;;;2.60;1.70;;;;;;;;;;6184425;23;20005;-76
2023/05/03 01:13:41;;;;;;;4.95;2.03;;;;;;;;;;6182145;23;20005;-76
2023/05/03 01:16:38;;;;;;;5.43;2.00;;;;;;;;;;6183489;23;20317;-76
2023/05/03 01:19:23;;;;;;;4.97;1.80;;;;;;;;;;6184988;23;20001;-76
2023/05/03 01:22:15;;;;;;;3.17;1.70;;;;;;;;;;6184590;23;20005;-76
2023/05/03 01:24:49;;;;;;;2.88;1.60;;;;;;;;;;6137024;23;20001;-77
2023/05/03 01:27:15;;;;;;;6.00;1.77;;;;;;;;;;6182784;23;20347;-76
2023/05/03 01:29:40;;;;;;;3.90;1.85;;;;;;;;;;6184619;23;20012;-76
2023/05/03 01:32:12;;;;;;;3.10;1.55;;;;;;;;;;6183066;23;20344;-76
2023/05/03 01:35:01;;;;;;;3.75;1.70;;;;;;;;;;6184743;23;20427;-76
2023/05/03 01:37:27;;;;;;;4.65;1.63;;;;;;;;;;6207762;23;20009;-76
2023/05/03 01:40:00;;;;;;;2.45;1.35;;;;;;;;;;6181940;23;20319;-77
2023/05/03 01:42:26;;;;;;;2.67;1.70;;;;;;;;;;6181907;23;20005;-77
2023/05/03 01:44:52;;;;;;;3.28;1.98;;;;;;;;;;6183243;23;20015;-76
2023/05/03 01:47:18;;;;;;;3.55;1.35;;;;;;;;;;6183949;23;20005;-76
2023/05/03 01:49:43;;;;;;;4.45;1.80;;;;;;;;;;6181695;23;20949;-76
2023/05/03 01:52:09;;;;;;;4.25;1.83;;;;;;;;;;6182879;23;20041;-76
2023/05/03 01:54:34;;;;;;;5.03;1.63;;;;;;;;;;6181567;23;20005;-76
2023/05/03 01:57:00;;;;;;;2.63;1.48;;;;;;;;;;6184434;23;20001;-76
2023/05/03 01:59:25;;;;;;;4.03;1.65;;;;;;;;;;6184866;23;20339;-76
2023/05/03 02:01:51;;;;;;;4.10;1.55;;;;;;;;;;6183967;23;20005;-76
2023/05/03 02:04:16;;;;;;;2.50;1.40;;;;;;;;;;6157543;23;20008;-76
2023/05/03 02:06:41;;;;;;;3.83;1.60;;;;;;;;;;6183915;23;20530;-76
2023/05/03 02:09:07;;;;;;;3.53;1.60;;;;;;;;;;6182968;23;20024;-76
2023/05/03 02:11:32;;;;;;;8.05;1.90;;;;;;;;;;6182364;23;20012;-76
2023/05/03 02:13:58;;;;;;;2.70;1.63;;;;;;;;;;6183574;23;20063;-76
2023/05/03 02:16:23;;;;;;;3.30;1.52;;;;;;;;;;6182746;23;20001;-76
2023/05/03 02:18:48;;;;;;;4.20;1.48;;;;;;;;;;6182185;23;20028;-77
2023/05/03 02:21:14;;;;;;;3.58;1.70;;;;;;;;;;6183114;23;20633;-76
2023/05/03 02:23:39;;;;;;;4.60;2.03;;;;;;;;;;6184419;23;20408;-77
2023/05/03 02:26:05;;;;;;;3.08;1.50;;;;;;;;;;6183501;23;20024;-76
2023/05/03 02:28:30;;;;;;;6.68;1.80;;;;;;;;;;6185100;23;20060;-76
2023/05/03 02:30:56;;;;;;;2.58;1.38;;;;;;;;;;6183817;23;20083;-76
2023/05/03 02:33:21;;;;;;;2.60;1.50;;;;;;;;;;6182144;23;20011;-76
2023/05/03 02:35:47;;;;;;;3.50;1.50;;;;;;;;;;6183980;23;20008;-76
2023/05/03 02:38:12;;;;;;;3.47;1.50;;;;;;;;;;6183807;23;20001;-76
2023/05/03 02:40:37;;;;;;;3.63;1.50;;;;;;;;;;6183874;23;20001;-76
2023/05/03 02:43:03;;;;;;;3.00;1.60;;;;;;;;;;6183410;23;20008;-77
2023/05/03 02:45:29;;;;;;;4.88;1.60;;;;;;;;;;6184757;23;20001;-76
2023/05/03 02:47:54;;;;;;;2.55;1.40;;;;;;;;;;6184871;23;20351;-76
2023/05/03 02:50:19;;;;;;;2.78;1.40;;;;;;;;;;6185032;23;20011;-76
2023/05/03 02:52:45;;;;;;;3.45;1.40;;;;;;;;;;6183535;23;20040;-76
2023/05/03 02:55:10;;;;;;;6.35;1.55;;;;;;;;;;6186121;23;20033;-76
2023/05/03 02:57:36;;;;;;;3.53;1.48;;;;;;;;;;6186798;23;20005;-76
2023/05/03 03:00:01;;;;;;;3.13;1.40;;;;;;;;;;6185174;23;20012;-77
2023/05/03 03:02:26;;;;;;;3.25;1.30;;;;;;;;;;6185118;23;20005;-76
2023/05/03 03:04:52;;;;;;;1.98;1.20;;;;;;;;;;6186824;23;19997;-76
2023/05/03 03:07:17;;;;;;;1.88;1.30;;;;;;;;;;6185380;23;20342;-76
2023/05/03 03:09:42;;;;;;;2.80;1.40;;;;;;;;;;6185844;23;20001;-76
2023/05/03 03:12:08;;;;;;;2.25;1.27;;;;;;;;;;6183648;23;20005;-76
2023/05/03 03:14:33;;;;;;;2.53;1.38;;;;;;;;;;6210266;23;20049;-76
2023/05/03 03:16:59;;;;;;;2.67;1.35;;;;;;;;;;6185343;23;20083;-74
2023/05/03 03:19:25;;;;;;;3.00;1.40;;;;;;;;;;6184985;23;20008;-74
2023/05/03 03:21:50;;;;;;;2.72;1.40;;;;;;;;;;6184136;23;20092;-76
2023/05/03 03:24:16;;;;;;;3.95;1.50;;;;;;;;;;6183908;23;20027;-76
2023/05/03 03:26:41;;;;;;;2.25;1.23;;;;;;;;;;6184256;23;20017;-76
2023/05/03 03:29:08;;;;;;;2.30;1.23;;;;;;;;;;6184819;23;20005;-76
2023/05/03 03:31:34;;;;;;;3.45;1.20;;;;;;;;;;6183968;23;20012;-76
2023/05/03 03:33:59;;;;;;;3.67;1.33;;;;;;;;;;6184362;23;20140;-76
2023/05/03 03:36:25;;;;;;;4.07;1.90;;;;;;;;;;6185251;23;20324;-77
2023/05/03 03:38:50;;;;;;;3.88;1.38;;;;;;;;;;6186580;23;20055;-77
2023/05/03 03:41:15;;;;;;;3.88;1.45;;;;;;;;;;6209236;23;20436;-76
2023/05/03 03:43:41;;;;;;;3.70;1.40;;;;;;;;;;6186067;23;20001;-76
2023/05/03 03:46:06;;;;;;;2.85;1.40;;;;;;;;;;6185140;23;20012;-76
2023/05/03 03:48:31;;;;;;;5.75;1.50;;;;;;;;;;6185007;23;20009;-76
2023/05/03 03:50:57;;;;;;;3.75;1.48;;;;;;;;;;6185492;23;20435;-76
2023/05/03 03:53:22;;;;;;;2.85;1.50;;;;;;;;;;6208126;23;20008;-76
2023/05/03 03:55:47;;;;;;;4.90;1.65;;;;;;;;;;6185458;23;20335;-76
2023/05/03 03:58:13;;;;;;;4.00;1.50;;;;;;;;;;6183096;23;20340;-76
2023/05/03 04:00:38;;;;;;;4.10;1.60;;;;;;;;;;6183418;23;20005;-76
2023/05/03 04:03:05;;;;;;;3.15;1.58;;;;;;;;;;6184546;23;20004;-76
2023/05/03 04:05:31;;;;;;;3.25;1.70;;;;;;;;;;6183815;23;20448;-77
2023/05/03 04:07:57;;;;;;;3.42;1.70;;;;;;;;;;6184008;23;20023;-77
2023/05/03 04:10:22;;;;;;;4.18;1.83;;;;;;;;;;6185737;23;20007;-77
2023/05/03 04:12:47;;;;;;;3.08;1.50;;;;;;;;;;6181997;23;20080;-78
2023/05/03 04:15:13;;;;;;;3.22;1.77;;;;;;;;;;6184081;23;20012;-78
2023/05/03 04:17:38;;;;;;;6.22;2.05;;;;;;;;;;6182981;23;19997;-77
2023/05/03 04:20:09;;;;;;;2.83;1.48;;;;;;;;;;6183846;23;20059;-78
2023/05/03 04:22:35;;;;;;;3.97;1.65;;;;;;;;;;6184403;23;20001;-78
2023/05/03 04:25:00;;;;;;;3.53;1.90;;;;;;;;;;6185472;23;19997;-79
2023/05/03 04:27:26;;;;;;;2.80;1.50;;;;;;;;;;6181039;23;20127;-78
2023/05/03 04:29:52;;;;;;;5.43;1.60;;;;;;;;;;6184564;23;20008;-78
2023/05/03 04:32:22;;;;;;;4.90;1.95;;;;;;;;;;6183198;23;20394;-78
2023/05/03 04:34:50;;;;;;;4.07;1.60;;;;;;;;;;6185657;23;20013;-78
2023/05/03 04:37:16;;;;;;;5.32;1.50;;;;;;;;;;6182473;23;20419;-78
2023/05/03 04:39:42;;;;;;;5.25;1.60;;;;;;;;;;6184681;23;20025;-78
2023/05/03 04:42:07;;;;;;;6.25;1.50;;;;;;;;;;6185702;23;20012;-78
2023/05/03 04:44:33;;;;;;;3.70;1.55;;;;;;;;;;6184102;23;20006;-78
2023/05/03 04:46:58;;;;;;;4.05;1.67;;;;;;;;;;6182818;23;20032;-78
2023/05/03 04:49:24;;;;;;;4.40;1.73;;;;;;;;;;6181953;23;20340;-78
2023/05/03 04:51:49;;;;;;;3.22;1.80;;;;;;;;;;6183115;23;20004;-78
2023/05/03 04:54:14;;;;;;;3.70;1.80;;;;;;;;;;6184388;23;20009;-78
2023/05/03 04:56:40;;;;;;;3.45;1.52;;;;;;;;;;6184520;23;20005;-78
2023/05/03 04:59:05;;;;;;;4.68;1.85;;;;;;;;;;6184362;23;20379;-78
2023/05/03 05:01:31;;;;;;;3.33;1.73;;;;;;;;;;6180692;23;20019;-78
2023/05/03 05:03:57;;;;;;;2.85;1.73;;;;;;;;;;6184796;23;20025;-78
2023/05/03 05:06:22;;;;;;;3.10;1.80;;;;;;;;;;6183779;23;20012;-78
2023/05/03 05:08:47;;;;;;;3.78;1.63;;;;;;;;;;6184594;23;20005;-78
2023/05/03 05:11:13;;;;;;;3.88;1.85;;;;;;;;;;6184177;23;20013;-76
2023/05/03 05:13:38;;;;;;;4.55;1.90;;;;;;;;;;6182682;23;20009;-76
2023/05/03 05:16:04;;;;;;;2.83;1.75;;;;;;;;;;6182280;23;20029;-79
2023/05/03 05:18:30;;;;;;;4.72;1.80;;;;;;;;;;6184403;23;20000;-78
2023/05/03 05:20:55;;;;;;;4.30;1.90;;;;;;;;;;6183721;23;20090;-78
2023/05/03 05:23:20;;;;;;;5.60;1.85;;;;;;;;;;6183446;23;20007;-78
2023/05/03 05:25:46;;;;;;;5.05;2.03;;;;;;;;;;6209567;23;20305;-78
2023/05/03 05:28:11;;;;;;;3.45;1.65;;;;;;;;;;6185490;23;20309;-78
2023/05/03 05:30:36;;;;;;;6.53;2.03;;;;;;;;;;6183433;23;20009;-78
2023/05/03 05:33:02;;;;;;;3.53;1.60;;;;;;;;;;6183474;23;20498;-78
2023/05/03 05:35:27;;;;;;;4.75;2.08;;;;;;;;;;6184801;23;20079;-78
2023/05/03 05:37:53;;;;;;;5.40;1.90;;;;;;;;;;6183401;23;20091;-77
2023/05/03 05:40:18;;;;;;;4.30;1.90;;;;;;;;;;6182708;23;20005;-78
2023/05/03 05:42:45;;;;;;;4.18;2.00;;;;;;;;;;6186926;23;20451;-78
2023/05/03 05:45:10;;;;;;;5.70;2.40;;;;;;;;;;6184972;23;20001;-78
2023/05/03 05:47:35;;;;;;;3.40;1.80;;;;;;;;;;6184951;23;20428;-78
2023/05/03 05:50:02;;;;;;;4.20;2.10;;;;;;;;;;6183751;23;20016;-78
2023/05/03 05:52:27;;;;;;;4.18;2.17;;;;;;;;;;6181932;23;20347;-78
2023/05/03 05:54:53;;;;;;;5.60;2.30;;;;;;;;;;6180827;23;20009;-78
2023/05/03 05:57:18;;;;;;;3.63;2.00;;;;;;;;;;6183177;23;20004;-78
2023/05/03 05:59:43;;;;;;;5.88;2.13;;;;;;;;;;6184216;23;20013;-78
2023/05/03 06:02:15;;;;;;;5.35;2.25;;;;;;;;;;6181418;23;20005;-78
2023/05/03 06:04:40;;;;;;;3.88;2.22;;;;;;;;;;6182682;23;20005;-78
2023/05/03 06:07:05;;;;;;;4.30;2.30;;;;;;;;;;6185114;23;20064;-78
2023/05/03 06:09:31;;;;;;;3.25;2.00;;;;;;;;;;6186820;23;20076;-78
2023/05/03 06:11:56;;;;;;;5.07;1.85;;;;;;;;;;6184679;23;20020;-78
2023/05/03 06:14:21;;;;;;;6.43;3.35;;;;;;;;;;6158954;23;20083;-78
2023/05/03 06:16:47;;;;;;;4.72;2.20;;;;;;;;;;6184443;23;20031;-78
2023/05/03 06:19:12;;;;;;;3.60;1.88;;;;;;;;;;6185500;23;20384;-78
2023/05/03 06:21:38;;;;;;;4.10;2.05;;;;;;;;;;6185063;23;20001;-78
2023/05/03 06:24:03;;;;;;;5.13;2.45;;;;;;;;;;6186546;23;19997;-78
2023/05/03 06:26:29;;;;;;;5.85;2.67;;;;;;;;;;6186862;23;20334;-78
2023/05/03 06:28:54;;;;;;;3.95;2.17;;;;;;;;;;6186268;23;20016;-78
2023/05/03 06:31:19;;;;;;;5.00;2.30;;;;;;;;;;6183983;23;20001;-78
2023/05/03 06:33:45;;;;;;;6.40;2.25;;;;;;;;;;6184300;23;20382;-78
2023/05/03 06:36:10;;;;;;;6.85;2.30;;;;;;;;;;6182518;23;20317;-78
2023/05/03 06:38:36;;;;;;;4.20;2.40;;;;;;;;;;6183140;23;20009;-78
2023/05/03 06:41:01;;;;;;;5.03;2.50;;;;;;;;;;6184385;23;20016;-78
2023/05/03 06:43:26;;;;;;;5.28;2.60;;;;;;;;;;6185431;23;20020;-78
2023/05/03 06:45:52;;;;;;;3.90;1.98;;;;;;;;;;6182421;23;20009;-77
2023/05/03 06:48:18;;;;;;;6.00;2.67;;;;;;;;;;6181083;23;20008;-77
2023/05/03 06:50:43;;;;;;;7.13;3.10;;;;;;;;;;6184239;23;20005;-78
2023/05/03 06:53:08;;;;;;;5.28;2.70;;;;;;;;;;6183183;23;20484;-78
2023/05/03 06:55:34;;;;;;;4.72;2.58;;;;;;;;;;6183088;23;20020;-78
2023/05/03 06:57:59;;;;;;;4.43;2.30;;;;;;;;;;6183354;23;20007;-78
2023/05/03 07:00:25;;;;;;;6.18;2.60;;;;;;;;;;6185116;23;20092;-78
2023/05/03 07:02:50;;;;;;;6.93;2.45;;;;;;;;;;6182760;23;20193;-78
2023/05/03 07:05:16;;;;;;;5.80;2.58;;;;;;;;;;6185394;23;20063;-77
2023/05/03 07:07:41;;;;;;;8.52;3.17;;;;;;;;;;6183543;23;20464;-78
2023/05/03 07:10:07;;;;;;;4.60;2.33;;;;;;;;;;6184062;23;20039;-78
2023/05/03 07:12:32;;;;;;;5.78;2.15;;;;;;;;;;6185318;23;20089;-77
2023/05/03 07:14:58;;;;;;;7.18;2.10;;;;;;;;;;6183885;23;20019;-78
2023/05/03 07:17:24;;;;;;;4.25;1.90;;;;;;;;;;6183567;23;20324;-78
2023/05/03 07:19:50;;;;;;;4.22;2.05;;;;;;;;;;6181936;23;20004;-78
2023/05/03 07:22:16;;;;;;;6.18;2.30;;;;;;;;;;6182881;23;20009;-78
2023/05/03 07:24:42;;;;;;;4.40;2.13;;;;;;;;;;6184212;23;20032;-78
2023/05/03 07:27:07;;;;;;;4.72;2.25;;;;;;;;;;6183703;23;20009;-78
2023/05/03 07:29:33;;;;;;;5.43;2.17;;;;;;;;;;6183853;23;20005;-78
2023/05/03 07:31:58;;;;;;;4.82;2.00;;;;;;;;;;6183835;23;20004;-78
2023/05/03 07:34:24;;;;;;;6.40;2.03;;;;;;;;;;6181184;23;20009;-77
2023/05/03 07:36:50;;;;;;;4.10;1.90;;;;;;;;;;6182801;23;20055;-78
2023/05/03 07:39:16;;;;;;;6.15;2.13;;;;;;;;;;6186618;23;20059;-78
2023/05/03 07:41:41;;;;;;;5.57;1.83;;;;;;;;;;6182999;23;20016;-78
2023/05/03 07:44:07;;;;;;;3.55;1.67;;;;;;;;;;6184928;23;20004;-77
2023/05/03 07:46:33;;;;;;;4.28;2.15;;;;;;;;;;6185666;23;20011;-78
2023/05/03 07:49:00;;;;;;;5.15;1.92;;;;;;;;;;6186628;23;20096;-78
2023/05/03 07:51:27;;;;;;;5.13;1.77;;;;;;;;;;6183238;23;20137;-78
2023/05/03 07:53:53;;;;;;;3.10;1.88;;;;;;;;;;6185602;23;20810;-78
2023/05/03 07:56:18;;;;;;;4.63;2.05;;;;;;;;;;6185862;23;20104;-78
2023/05/03 07:58:43;;;;;;;4.35;2.10;;;;;;;;;;6158699;23;20058;-78
2023/05/03 08:01:09;;;;;;;5.30;2.10;;;;;;;;;;6181404;23;20373;-78
2023/05/03 08:03:34;;;;;;;5.30;2.00;;;;;;;;;;6208207;23;20092;-78
2023/05/03 08:06:00;;;;;;;3.15;1.67;;;;;;;;;;6185700;23;20076;-78
2023/05/03 08:08:26;;;;;;;5.88;2.05;;;;;;;;;;6186359;23;20009;-78
2023/05/03 08:10:52;;;;;;;4.22;1.80;;;;;;;;;;6183178;23;20005;-78
2023/05/03 08:13:17;;;;;;;4.97;2.28;;;;;;;;;;6186494;23;20450;-78
2023/05/03 08:15:44;;;;;;;6.07;2.13;;;;;;;;;;6184149;23;20084;-77
2023/05/03 08:18:10;;;;;;;5.40;2.20;;;;;;;;;;6185850;23;20001;-78
2023/05/03 08:20:35;;;;;;;3.95;2.20;;;;;;;;;;6184537;23;20454;-78
2023/05/03 08:23:01;;;;;;;3.65;2.00;;;;;;;;;;6183558;23;20326;-78
2023/05/03 08:25:27;;;;;;;5.05;2.38;;;;;;;;;;6184619;23;20076;-78
2023/05/03 08:27:52;;;;;;;4.55;2.10;;;;;;;;;;6186714;23;20029;-78
2023/05/03 08:30:20;;;;;;;3.50;1.92;;;;;;;;;;6184632;23;20009;-78
2023/05/03 08:32:46;;;;;;;6.45;2.15;;;;;;;;;;6209747;23;20012;-78
2023/05/03 08:35:13;;;;;;;6.90;2.33;;;;;;;;;;6186036;23;20458;-79
2023/05/03 08:37:40;;;;;;;7.65;2.80;;;;;;;;;;6185249;23;20058;-78
2023/05/03 08:40:08;;;;;;;4.60;2.10;;;;;;;;;;6184299;23;20009;-78
2023/05/03 08:42:38;;;;;;;3.70;2.17;;;;;;;;;;6185029;23;20375;-78
2023/05/03 08:45:04;;;;;;;5.38;2.40;;;;;;;;;;6185480;23;20012;-78
2023/05/03 08:47:34;;;;;;;4.45;2.67;;;;;;;;;;6183270;23;20001;-79
2023/05/03 08:50:02;;;;;;;4.90;2.30;;;;;;;;;;6183422;23;20005;-78
2023/05/03 08:52:27;;;;;;;6.35;2.60;;;;;;;;;;6182456;23;20261;-77
2023/05/03 08:54:53;;;;;;;5.00;2.80;;;;;;;;;;6206651;23;20344;-78
2023/05/03 08:57:22;;;;;;;6.25;2.63;;;;;;;;;;6183627;23;20012;-78
2023/05/03 08:59:53;;;;;;;3.50;2.30;;;;;;;;;;6183486;23;20416;-78
2023/05/03 09:02:18;;;;;;;5.40;2.65;;;;;;;;;;6182345;23;20001;-78
2023/05/03 09:04:44;;;;;;;6.55;2.17;;;;;;;;;;6207121;23;20383;-78
2023/05/03 09:07:11;;;;;;;6.30;2.50;;;;;;;;;;6185001;23;20005;-78
2023/05/03 09:09:36;;;;;;;5.55;2.40;;;;;;;;;;6181108;23;20004;-78
2023/05/03 09:12:03;;;;;;;7.88;2.80;;;;;;;;;;6180827;23;20676;-78
2023/05/03 09:14:28;;;;;;;6.03;2.83;;;;;;;;;;6183073;23;20083;-78
2023/05/03 09:16:54;;;;;;;6.43;2.42;;;;;;;;;;6183825;23;20016;-78
2023/05/03 09:19:20;;;;;;;7.63;2.60;;;;;;;;;;6183794;23;20004;-76
2023/05/03 09:21:46;;;;;;;6.13;2.40;;;;;;;;;;6182875;23;20016;-78
2023/05/03 09:24:16;;;;;;;4.07;2.30;;;;;;;;;;6184860;23;20009;-78
2023/05/03 09:26:42;;;;;;;6.53;2.67;;;;;;;;;;6185731;23;20040;-78
2023/05/03 09:29:08;;;;;;;4.85;2.45;;;;;;;;;;6183591;23;20020;-78
2023/05/03 09:31:35;;;;;;;5.30;2.40;;;;;;;;;;6184682;23;20017;-78
2023/05/03 09:34:01;;;;;;;6.88;2.40;;;;;;;;;;6183535;23;20005;-78
2023/05/03 09:36:26;;;;;;;5.18;2.50;;;;;;;;;;6183576;23;20339;-78
2023/05/03 09:38:53;;;;;;;4.88;2.60;;;;;;;;;;6184072;23;20035;-78
2023/05/03 09:41:29;;;;;;;6.18;2.50;;;;;;;;;;6182500;23;20001;-79
2023/05/03 09:43:55;;;;;;;5.28;2.65;;;;;;;;;;6184103;23;20332;-78
2023/05/03 09:46:23;;;;;;;4.40;2.42;;;;;;;;;;6185449;23;20005;-78
2023/05/03 09:48:49;;;;;;;6.22;2.80;;;;;;;;;;6185297;23;20079;-78
2023/05/03 09:51:15;;;;;;;5.72;2.60;;;;;;;;;;6185121;23;20082;-78
2023/05/03 09:53:41;;;;;;;5.72;2.67;;;;;;;;;;6184392;23;20004;-79
2023/05/03 09:56:11;;;;;;;5.97;2.20;;;;;;;;;;6185094;23;20428;-79
2023/05/03 09:58:38;;;;;;;6.07;2.50;;;;;;;;;;6181574;23;20454;-78
2023/05/03 10:01:04;;;;;;;5.50;2.42;;;;;;;;;;6185716;23;20005;-79
2023/05/03 10:03:47;;;;;;;5.65;2.55;;;;;;;;;;6183916;23;20005;-79
2023/05/03 10:06:34;;;;;;;5.90;2.95;;;;;;;;;;6183917;23;20004;-78
2023/05/03 10:09:04;;;;;;;4.55;2.70;;;;;;;;;;6185080;23;20005;-78
2023/05/03 10:11:33;;;;;;;6.55;2.50;;;;;;;;;;6182806;23;20096;-78
2023/05/03 10:13:59;;;;;;;5.97;2.90;;;;;;;;;;6184206;23;20009;-78
2023/05/03 10:16:37;;;;;;;4.47;2.40;;;;;;;;;;6182626;23;20347;-79
2023/05/03 10:19:14;;;;;;;3.75;2.55;;;;;;;;;;6183561;23;20005;-79
2023/05/03 10:22:05;;;;;;;5.50;2.35;;;;;;;;;;6185155;23;20005;-79
2023/05/03 10:24:32;;;;;;;9.00;2.72;;;;;;;;;;6182098;23;20076;-78
2023/05/03 10:26:58;;;;;;;5.88;2.75;;;;;;;;;;6181386;23;20005;-78
2023/05/03 10:29:47;;;;;;;5.13;2.30;;;;;;;;;;6182837;23;20084;-78
2023/05/03 10:32:39;;;;;;;5.15;2.95;;;;;;;;;;6169810;23;20009;-78
2023/05/03 10:35:11;;;;;;;13.20;3.22;;;;;;;;;;6164773;23;20051;-78
2023/05/03 10:37:39;;;;;;;6.38;2.35;;;;;;;;;;6174656;23;20009;-77
2023/05/03 10:40:06;;;;;;;4.20;2.40;;;;;;;;;;6175317;23;20005;-78
2023/05/03 10:42:32;;;;;;;4.10;2.83;;;;;;;;;;6174294;23;20079;-78
2023/05/03 10:45:00;;;;;;;4.63;2.90;;;;;;;;;;6174673;23;20009;-78
2023/05/03 10:47:26;;;;;;;7.32;2.80;;;;;;;;;;6176471;23;20009;-78
2023/05/03 10:50:13;;;;;;;4.53;2.63;;;;;;;;;;6173133;23;20497;-77
2023/05/03 10:52:38;;;;;;;7.18;2.83;;;;;;;;;;6171516;23;20282;-79
2023/05/03 10:55:24;;;;;;;5.88;2.90;;;;;;;;;;6174289;23;20012;-78
2023/05/03 10:57:54;;;;;;;5.53;2.72;;;;;;;;;;6174989;23;20458;-78
2023/05/03 11:00:24;;;;;;;5.65;2.85;;;;;;;;;;6175112;23;20463;-78
2023/05/03 11:03:11;;;;;;;5.78;2.88;;;;;;;;;;6173282;23;20040;-77
2023/05/03 11:05:37;;;;;;;5.32;3.20;;;;;;;;;;6175095;23;20053;-78
2023/05/03 11:08:17;;;;;;;4.78;2.65;;;;;;;;;;6176851;23;20024;-76
2023/05/03 11:10:44;;;;;;;5.60;3.30;;;;;;;;;;6198836;23;20012;-76
2023/05/03 11:13:09;;;;;;;7.50;2.90;;;;;;;;;;6173411;23;20005;-77
2023/05/03 11:15:35;;;;;;;5.25;2.80;;;;;;;;;;6178374;23;20202;-76
2023/05/03 11:18:01;;;;;;;4.95;2.70;;;;;;;;;;6177653;23;20325;-76
2023/05/03 11:20:27;;;;;;;3.90;2.60;;;;;;;;;;6178260;23;20013;-77
2023/05/03 11:22:52;;;;;;;6.00;3.10;;;;;;;;;;6178239;23;20155;-76
2023/05/03 11:25:18;;;;;;;7.47;3.60;;;;;;;;;;6171281;23;20059;-76
2023/05/03 11:27:46;;;;;;;4.57;3.10;;;;;;;;;;6176016;23;20013;-76
2023/05/03 11:30:12;;;;;;;6.68;3.55;;;;;;;;;;6177663;23;20466;-76
2023/05/03 11:32:38;;;;;;;7.30;2.78;;;;;;;;;;6176690;23;20264;-76
2023/05/03 11:35:06;;;;;;;5.72;3.40;;;;;;;;;;6174124;23;20013;-76
2023/05/03 11:37:31;;;;;;;5.95;2.90;;;;;;;;;;6167216;23;20452;-76
2023/05/03 11:39:57;;;;;;;5.15;3.10;;;;;;;;;;6172440;23;20020;-77
2023/05/03 11:42:26;;;;;;;7.07;3.40;;;;;;;;;;6174371;23;20059;-77
2023/05/03 11:44:52;;;;;;;5.18;2.88;;;;;;;;;;6176840;23;20031;-77
2023/05/03 11:47:20;;;;;;;4.97;3.15;;;;;;;;;;6173899;23;20009;-76
2023/05/03 11:49:56;;;;;;;5.32;3.05;;;;;;;;;;6176247;23;20013;-76
2023/05/03 11:52:23;;;;;;;5.38;2.78;;;;;;;;;;6199700;23;20032;-76
2023/05/03 11:54:49;;;;;;;5.60;2.95;;;;;;;;;;6175995;23;20009;-77
2023/05/03 11:57:15;;;;;;;6.43;3.00;;;;;;;;;;6176316;23;20013;-77
2023/05/03 11:59:42;;;;;;;6.00;3.38;;;;;;;;;;6173807;23;20009;-77
2023/05/03 12:02:10;;;;;;;6.90;3.08;;;;;;;;;;6177204;23;20032;-77
2023/05/03 12:04:39;;;;;;;4.68;2.55;;;;;;;;;;6176629;23;20076;-77
2023/05/03 12:07:06;;;;;;;5.72;3.05;;;;;;;;;;6177563;23;20210;-76
2023/05/03 12:09:32;;;;;;;5.60;3.20;;;;;;;;;;6173876;23;20017;-76
2023/05/03 12:11:58;;;;;;;5.20;2.90;;;;;;;;;;6174736;23;20008;-77
2023/05/03 12:14:23;;;;;;;5.85;3.50;;;;;;;;;;6177206;23;20009;-76
2023/05/03 12:16:51;;;;;;;4.32;3.00;;;;;;;;;;6174208;23;20029;-76
2023/05/03 12:19:29;;;;;;;5.03;2.95;;;;;;;;;;6173763;23;20083;-76
2023/05/03 12:21:55;;;;;;;6.97;3.00;;;;;;;;;;6174538;23;20031;-76
2023/05/03 12:24:22;;;;;;;5.75;3.22;;;;;;;;;;6175492;23;20005;-77
2023/05/03 12:26:48;;;;;;;5.70;3.13;;;;;;;;;;6176581;23;20325;-76
2023/05/03 12:29:18;;;;;;;6.30;3.40;;;;;;;;;;6173477;23;20009;-76
2023/05/03 12:31:44;;;;;;;6.03;3.38;;;;;;;;;;6176612;23;20009;-76
2023/05/03 12:34:10;;;;;;;4.95;2.88;;;;;;;;;;6176422;23;20005;-77
2023/05/03 12:36:36;;;;;;;5.65;2.67;;;;;;;;;;6175918;23;20009;-76
2023/05/03 12:39:01;;;;;;;6.60;2.67;;;;;;;;;;6173572;23;20058;-76
2023/05/03 12:41:30;;;;;;;4.65;2.70;;;;;;;;;;6175183;23;20099;-77
2023/05/03 12:43:57;;;;;;;5.72;3.25;;;;;;;;;;6177862;23;20767;-76
2023/05/03 12:46:22;;;;;;;4.75;2.75;;;;;;;;;;6177244;23;20442;-76
2023/05/03 12:48:51;;;;;;;8.70;3.38;;;;;;;;;;6175280;23;20001;-77
2023/05/03 12:51:17;;;;;;;4.60;2.75;;;;;;;;;;6177018;23;20021;-77
2023/05/03 12:53:42;;;;;;;9.60;3.08;;;;;;;;;;6176165;23;20458;-76
2023/05/03 12:56:08;;;;;;;7.72;3.10;;;;;;;;;;6199878;23;20127;-77
2023/05/03 12:58:34;;;;;;;6.68;3.13;;;;;;;;;;6176053;23;20009;-76
2023/05/03 13:00:59;;;;;;;5.72;2.85;;;;;;;;;;6175127;23;20065;-77
2023/05/03 13:03:24;;;;;;;5.38;3.30;;;;;;;;;;6173830;23;20466;-77
2023/05/03 13:05:50;;;;;;;6.88;3.30;;;;;;;;;;6173731;23;20001;-77
2023/05/03 13:08:15;;;;;;;6.97;3.28;;;;;;;;;;6176086;23;20089;-77
2023/05/03 13:10:41;;;;;;;5.57;2.90;;;;;;;;;;6176506;23;20032;-77
2023/05/03 13:13:06;;;;;;;4.78;3.30;;;;;;;;;;6198781;23;20061;-77
2023/05/03 13:15:33;;;;;;;5.88;3.40;;;;;;;;;;6199670;23;20011;-77
2023/05/03 13:18:03;;;;;;;4.88;3.08;;;;;;;;;;6196335;23;20005;-77
2023/05/03 13:20:30;;;;;;;5.55;3.50;;;;;;;;;;6197806;23;20004;-77
2023/05/03 13:22:56;;;;;;;5.38;3.70;;;;;;;;;;6197671;23;20013;-77
2023/05/03 13:25:21;;;;;;;7.70;3.33;;;;;;;;;;6197711;23;20001;-77
2023/05/03 13:27:49;;;;;;;6.35;3.20;;;;;;;;;;6198121;23;20007;-77
2023/05/03 13:30:14;;;;;;;5.50;3.10;;;;;;;;;;6196200;23;20035;-76
2023/05/03 13:32:39;;;;;;;5.68;3.45;;;;;;;;;;6197449;23;20009;-77
2023/05/03 13:35:06;;;;;;;6.57;3.50;;;;;;;;;;6195420;23;20053;-78
2023/05/03 13:37:31;;;;;;;7.57;3.50;;;;;;;;;;6191486;23;20016;-77
2023/05/03 13:39:57;;;;;;;6.53;3.20;;;;;;;;;;6194665;23;20005;-77
2023/05/03 13:42:22;;;;;;;5.43;3.45;;;;;;;;;;6194166;23;20023;-77
2023/05/03 13:44:48;;;;;;;6.95;3.40;;;;;;;;;;6193301;23;20005;-77
2023/05/03 13:47:13;;;;;;;6.75;3.35;;;;;;;;;;6199051;23;20016;-77
2023/05/03 13:49:38;;;;;;;7.90;3.60;;;;;;;;;;6192456;23;20269;-77
2023/05/03 13:52:04;;;;;;;6.53;3.20;;;;;;;;;;6195197;23;20459;-77
2023/05/03 13:54:29;;;;;;;6.53;3.47;;;;;;;;;;6195567;23;20036;-77
2023/05/03 13:56:55;;;;;;;6.72;2.90;;;;;;;;;;6163436;23;20016;-76
2023/05/03 13:59:20;;;;;;;6.80;3.47;;;;;;;;;;6192147;23;20168;-76
2023/05/03 14:01:46;;;;;;;4.82;2.95;;;;;;;;;;6193278;23;20032;-76
2023/05/03 14:04:12;;;;;;;5.40;2.63;;;;;;;;;;6195113;23;20001;-78
2023/05/03 14:06:38;;;;;;;5.05;2.55;;;;;;;;;;6194562;23;20011;-77
2023/05/03 14:09:04;;;;;;;8.27;3.33;;;;;;;;;;6188864;23;20009;-77
2023/05/03 14:11:29;;;;;;;5.20;2.72;;;;;;;;;;6187853;23;20067;-77
2023/05/03 14:13:55;;;;;;;3.97;2.80;;;;;;;;;;6189514;23;20039;-77
2023/05/03 14:16:22;;;;;;;5.80;3.03;;;;;;;;;;6189279;23;20047;-76
2023/05/03 14:18:48;;;;;;;6.07;2.97;;;;;;;;;;6192823;23;20036;-76
2023/05/03 14:21:15;;;;;;;4.85;2.70;;;;;;;;;;6189268;23;20351;-77
2023/05/03 14:23:40;;;;;;;6.22;3.00;;;;;;;;;;6190662;23;20006;-76
2023/05/03 14:26:06;;;;;;;5.65;3.08;;;;;;;;;;6188141;23;20060;-77
2023/05/03 14:28:32;;;;;;;6.43;3.00;;;;;;;;;;6185387;23;20182;-77
2023/05/03 14:30:57;;;;;;;7.55;2.90;;;;;;;;;;6192111;23;20016;-77
2023/05/03 14:33:22;;;;;;;4.60;2.35;;;;;;;;;;6192317;23;20008;-76
2023/05/03 14:35:48;;;;;;;6.90;3.10;;;;;;;;;;6213090;23;20009;-76
2023/05/03 14:38:13;;;;;;;8.02;2.50;;;;;;;;;;6187444;23;20009;-77
2023/05/03 14:40:40;;;;;;;6.35;3.13;;;;;;;;;;6189275;23;20063;-76
2023/05/03 14:43:07;;;;;;;4.82;2.97;;;;;;;;;;6192496;23;20029;-77